Time;durP1;ratioP1;P1;durP2;ratioP2;P2;SDS_P1;SDS_P2;PMS_P1;PMS_P2;Temp;Humidity;BMP_temperature;BMP_pressure;BME280_temperature;BME280_humidity;BME280_pressure;Samples;Min_cycle;Max_cycle;Signal;HPM_P1;HPM_P2
2022/01/05 00:00:02;;;;;;;1.27;1.10;;;;;;;;;;5020177;28;20209;-82
2022/01/05 00:02:29;;;;;;;0.63;0.63;;;;;;;;;;5023325;28;20279;-81
2022/01/05 00:04:57;;;;;;;1.02;0.98;;;;;;;;;;5022722;28;20208;-82
2022/01/05 00:07:24;;;;;;;1.25;1.02;;;;;;;;;;5023872;28;20666;-81
2022/01/05 00:09:51;;;;;;;1.00;0.93;;;;;;;;;;5020469;28;20292;-81
2022/01/05 00:12:18;;;;;;;0.93;0.93;;;;;;;;;;5020262;28;20217;-82
2022/01/05 00:14:47;;;;;;;0.80;0.80;;;;;;;;;;5016133;28;20201;-82
2022/01/05 00:17:14;;;;;;;0.98;0.98;;;;;;;;;;5019692;28;20751;-82
2022/01/05 00:19:41;;;;;;;1.13;1.00;;;;;;;;;;5020836;28;20299;-82
2022/01/05 00:22:08;;;;;;;0.75;0.75;;;;;;;;;;5020329;28;20279;-82
2022/01/05 00:24:36;;;;;;;0.80;0.80;;;;;;;;;;5020894;28;20291;-82
2022/01/05 00:27:03;;;;;;;0.90;0.90;;;4.90;99.90;;;;;;5023701;28;20267;-83
2022/01/05 00:29:31;;;;;;;1.10;1.10;;;;;;;;;;5021566;28;20200;-82
2022/01/05 00:31:59;;;;;;;0.85;0.85;;;;;;;;;;5019680;28;20331;-83
2022/01/05 00:34:26;;;;;;;0.80;0.75;;;;;;;;;;5020758;28;20284;-83
2022/01/05 00:36:54;;;;;;;0.70;0.70;;;;;;;;;;5016487;28;20316;-83
2022/01/05 00:39:21;;;;;;;0.80;0.80;;;;;;;;;;5020433;28;20232;-83
2022/01/05 00:41:48;;;;;;;1.20;0.88;;;;;;;;;;5022232;28;20247;-83
2022/01/05 00:44:15;;;;;;;0.70;0.70;;;;;;;;;;5022357;28;20308;-83
2022/01/05 00:46:42;;;;;;;0.60;0.60;;;;;;;;;;5017734;28;20843;-83
2022/01/05 00:49:11;;;;;;;1.10;0.60;;;;;;;;;;5022476;28;20278;-83
2022/01/05 00:51:38;;;;;;;0.50;0.50;;;;;;;;;;5014475;28;20312;-83
2022/01/05 00:54:05;;;;;;;0.55;0.55;;;;;;;;;;5020005;28;20284;-83
2022/01/05 00:56:33;;;;;;;0.40;0.40;;;;;;;;;;5022749;28;20367;-83
2022/01/05 00:59:00;;;;;;;0.63;0.63;;;;;;;;;;5021828;28;20673;-81
2022/01/05 01:01:27;;;;;;;0.50;0.40;;;;;;;;;;5019754;28;20685;-83
2022/01/05 01:03:54;;;;;;;0.60;0.60;;;;;;;;;;5023092;28;20229;-83
2022/01/05 01:06:23;;;;;;;0.50;0.50;;;4.60;99.90;;;;;;5024058;28;20203;-83
2022/01/05 01:08:51;;;;;;;0.50;0.40;;;;;;;;;;5023974;28;20291;-83
2022/01/05 01:11:20;;;;;;;0.40;0.40;;;;;;;;;;5019294;28;20306;-83
2022/01/05 01:13:48;;;;;;;0.43;0.43;;;;;;;;;;5018533;28;20303;-83
2022/01/05 01:16:15;;;;;;;0.95;0.40;;;;;;;;;;5020260;28;20205;-82
2022/01/05 01:18:44;;;;;;;0.70;0.40;;;;;;;;;;5023184;28;20232;-82
2022/01/05 01:21:12;;;;;;;1.25;0.50;;;;;;;;;;5023819;28;20254;-83
2022/01/05 01:23:48;;;;;;;0.30;0.30;;;;;;;;;;5021047;28;20212;-82
2022/01/05 01:26:17;;;;;;;0.60;0.30;;;;;;;;;;5021913;28;20204;-83
2022/01/05 01:28:45;;;;;;;0.35;0.35;;;;;;;;;;5019571;28;20211;-82
2022/01/05 01:31:12;;;;;;;0.50;0.50;;;;;;;;;;5021704;28;20224;-83
2022/01/05 01:33:40;;;;;;;0.30;0.30;;;;;;;;;;5020157;28;20247;-82
2022/01/05 01:36:07;;;;;;;0.40;0.40;;;;;;;;;;5022381;28;20201;-83
2022/01/05 01:38:34;;;;;;;0.75;0.30;;;;;;;;;;5018821;28;20262;-83
2022/01/05 01:41:03;;;;;;;2.30;0.52;;;;;;;;;;5019650;28;20209;-83
2022/01/05 01:43:30;;;;;;;0.50;0.50;;;;;;;;;;5021258;28;20205;-82
2022/01/05 01:45:57;;;;;;;0.50;0.40;;;;;;;;;;5017326;28;20213;-82
2022/01/05 01:48:25;;;;;;;0.50;0.50;;;;;;;;;;5021204;28;20231;-82
2022/01/05 01:50:52;;;;;;;0.45;0.40;;;;;;;;;;5020517;28;20311;-83
2022/01/05 01:53:19;;;;;;;1.70;0.70;;;;;;;;;;5020260;28;20683;-83
2022/01/05 01:55:48;;;;;;;1.90;0.55;;;4.60;99.90;;;;;;5023598;28;20672;-83
2022/01/05 01:58:18;;;;;;;0.40;0.40;;;4.60;99.90;;;;;;5020201;28;20884;-83
2022/01/05 02:00:46;;;;;;;0.40;0.40;;;;;;;;;;5022481;28;20208;-83
2022/01/05 02:03:14;;;;;;;0.50;0.50;;;4.60;99.90;;;;;;5025155;28;20193;-83
2022/01/05 02:05:41;;;;;;;0.50;0.50;;;;;;;;;;5023150;28;20764;-82
2022/01/05 02:08:09;;;;;;;0.70;0.40;;;;;;;;;;5027247;28;20200;-83
2022/01/05 02:10:37;;;;;;;0.52;0.43;;;;;;;;;;5024135;28;20220;-83
2022/01/05 02:13:05;;;;;;;0.60;0.60;;;;;;;;;;5026007;28;20316;-83
2022/01/05 02:15:34;;;;;;;0.50;0.43;;;;;;;;;;5027166;28;20208;-82
2022/01/05 02:18:21;;;;;;;0.50;0.50;;;;;;;;;;5020980;28;20232;-83
2022/01/05 02:20:50;;;;;;;0.50;0.40;;;;;;;;;;5023299;28;20204;-82
2022/01/05 02:23:17;;;;;;;0.40;0.40;;;;;;;;;;5022908;28;20212;-82
2022/01/05 02:25:45;;;;;;;0.32;0.32;;;;;;;;;;5023921;28;20232;-83
2022/01/05 02:28:12;;;;;;;0.30;0.30;;;;;;;;;;5022107;28;20313;-82
2022/01/05 02:30:40;;;;;;;0.40;0.40;;;;;;;;;;5021905;28;20229;-82
2022/01/05 02:33:07;;;;;;;0.52;0.50;;;;;;;;;;5025131;28;20225;-83
2022/01/05 02:35:34;;;;;;;0.40;0.40;;;;;;;;;;5022717;28;20201;-82
2022/01/05 02:38:03;;;;;;;0.50;0.40;;;;;;;;;;5024981;28;20211;-83
2022/01/05 02:40:31;;;;;;;0.40;0.40;;;4.90;99.90;;;;;;5024109;28;20216;-83
2022/01/05 02:42:58;;;;;;;0.85;0.70;;;;;;;;;;5018758;28;20197;-83
2022/01/05 02:45:26;;;;;;;0.40;0.40;;;;;;;;;;5025768;28;20200;-83
2022/01/05 02:47:54;;;;;;;2.83;1.05;;;;;;;;;;5019646;28;20209;-83
2022/01/05 02:50:23;;;;;;;2.58;0.77;;;;;;;;;;5025324;28;20205;-83
2022/01/05 02:52:50;;;;;;;0.60;0.60;;;;;;;;;;5025414;28;20228;-83
2022/01/05 02:55:20;;;;;;;0.82;0.50;;;;;;;;;;5021821;28;21140;-83
2022/01/05 02:57:47;;;;;;;0.50;0.43;;;;;;;;;;5024918;28;20212;-83
2022/01/05 03:00:16;;;;;;;0.50;0.50;;;4.70;99.90;;;;;;5023968;28;20681;-83
2022/01/05 03:02:43;;;;;;;1.35;1.00;;;;;;;;;;5024962;28;20836;-83
2022/01/05 03:05:11;;;;;;;0.80;0.80;;;;;;;;;;5023417;28;20598;-82
2022/01/05 03:07:39;;;;;;;0.40;0.40;;;;;;;;;;5021631;28;20322;-83
2022/01/05 03:10:08;;;;;;;1.20;1.00;;;4.80;99.90;;;;;;5027384;28;20278;-83
2022/01/05 03:12:38;;;;;;;1.30;1.20;;;4.90;99.90;;;;;;5018935;28;20236;-84
2022/01/05 03:15:06;;;;;;;1.10;0.73;;;;;;;;;;5019570;28;20210;-83
2022/01/05 03:17:33;;;;;;;0.70;0.70;;;;;;;;;;5022263;28;20268;-83
2022/01/05 03:20:00;;;;;;;0.43;0.43;;;;;;;;;;5023240;28;20583;-83
2022/01/05 03:22:28;;;;;;;0.50;0.50;;;;;;;;;;5025211;28;20254;-83
2022/01/05 03:24:55;;;;;;;0.50;0.50;;;;;;;;;;5023732;28;20753;-83
2022/01/05 03:27:22;;;;;;;1.02;0.50;;;;;;;;;;5022191;28;20205;-83
2022/01/05 03:29:51;;;;;;;0.40;0.40;;;;;;;;;;5026461;28;20208;-83
2022/01/05 03:32:18;;;;;;;0.50;0.40;;;;;;;;;;5013367;28;20232;-83
2022/01/05 03:34:46;;;;;;;0.40;0.35;;;;;;;;;;5023664;28;20291;-83
2022/01/05 03:37:14;;;;;;;2.08;0.63;;;;;;;;;;5015501;28;20221;-83
2022/01/05 03:39:41;;;;;;;0.70;0.40;;;;;;;;;;5022439;28;20274;-83
2022/01/05 03:42:08;;;;;;;0.38;0.38;;;;;;;;;;5023113;28;20212;-83
2022/01/05 03:44:36;;;;;;;0.73;0.57;;;;;;;;;;5023691;28;20209;-84
2022/01/05 03:47:05;;;;;;;0.40;0.30;;;;;;;;;;5019937;28;20630;-83
2022/01/05 03:49:32;;;;;;;0.50;0.50;;;;;;;;;;5023903;28;20192;-83
2022/01/05 03:52:00;;;;;;;0.40;0.40;;;;;;;;;;5022118;28;20619;-83
2022/01/05 03:54:27;;;;;;;1.65;0.80;;;;;;;;;;5024538;28;20255;-83
2022/01/05 03:56:55;;;;;;;0.40;0.30;;;;;;;;;;5021330;28;20224;-83
2022/01/05 03:59:22;;;;;;;0.40;0.30;;;;;;;;;;5021231;28;20223;-83
2022/01/05 04:01:49;;;;;;;2.15;0.38;;;;;;;;;;5031986;28;20212;-83
2022/01/05 04:04:18;;;;;;;0.50;0.30;;;;;;;;;;5022475;28;20658;-84
2022/01/05 04:06:45;;;;;;;0.32;0.32;;;;;;;;;;5020935;28;20609;-83
2022/01/05 04:09:12;;;;;;;0.47;0.40;;;;;;;;;;5017617;28;20216;-84
2022/01/05 04:11:39;;;;;;;0.45;0.40;;;;;;;;;;5020704;28;20220;-84
2022/01/05 04:14:08;;;;;;;0.52;0.50;;;;;;;;;;5019535;28;20216;-84
2022/01/05 04:16:35;;;;;;;0.40;0.30;;;;;;;;;;5020133;28;20232;-83
2022/01/05 04:19:02;;;;;;;0.45;0.30;;;;;;;;;;5020546;28;20211;-84
2022/01/05 04:21:31;;;;;;;0.82;0.70;;;;;;;;;;5018396;28;20618;-84
2022/01/05 04:23:58;;;;;;;0.75;0.50;;;;;;;;;;5020508;28;20208;-83
2022/01/05 04:26:25;;;;;;;0.65;0.43;;;;;;;;;;5019741;28;20224;-83
2022/01/05 04:28:53;;;;;;;0.50;0.50;;;;;;;;;;5020333;28;20205;-83
2022/01/05 04:31:20;;;;;;;0.73;0.60;;;;;;;;;;5023610;28;20224;-83
2022/01/05 04:33:47;;;;;;;0.52;0.45;;;;;;;;;;5023828;28;20201;-83
2022/01/05 04:36:14;;;;;;;0.47;0.40;;;;;;;;;;5022525;28;20390;-83
2022/01/05 04:38:43;;;;;;;0.50;0.50;;;;;;;;;;5023830;28;20212;-83
2022/01/05 04:41:10;;;;;;;0.55;0.55;;;;;;;;;;5021085;28;20217;-83
2022/01/05 04:43:37;;;;;;;0.63;0.60;;;;;;;;;;5024647;28;20266;-83
2022/01/05 04:46:05;;;;;;;0.40;0.35;;;;;;;;;;5019299;28;20201;-84
2022/01/05 04:48:32;;;;;;;0.32;0.32;;;;;;;;;;5023580;28;20700;-83
2022/01/05 04:50:59;;;;;;;0.40;0.40;;;;;;;;;;5023664;28;20247;-83
2022/01/05 04:53:27;;;;;;;0.63;0.40;;;;;;;;;;5020109;28;20274;-82
2022/01/05 04:55:55;;;;;;;0.95;0.30;;;;;;;;;;5020861;28;20196;-82
2022/01/05 04:58:23;;;;;;;0.40;0.30;;;;;;;;;;5025852;28;20275;-82
2022/01/05 05:00:50;;;;;;;0.40;0.30;;;;;;;;;;5017632;28;20209;-83
2022/01/05 05:03:17;;;;;;;0.50;0.32;;;;;;;;;;5027459;28;20215;-81
2022/01/05 05:05:44;;;;;;;0.80;0.57;;;;;;;;;;5019814;28;20217;-81
2022/01/05 05:08:12;;;;;;;0.30;0.30;;;;;;;;;;5023430;28;20988;-81
2022/01/05 05:10:39;;;;;;;0.40;0.40;;;;;;;;;;5020149;28;20284;-82
2022/01/05 05:13:10;;;;;;;0.50;0.40;;;;;;;;;;5019783;28;20228;-82
2022/01/05 05:15:38;;;;;;;0.40;0.40;;;;;;;;;;5020691;28;20209;-82
2022/01/05 05:18:06;;;;;;;1.02;0.90;;;4.10;99.90;;;;;;5020531;28;20207;-81
2022/01/05 05:20:34;;;;;;;0.60;0.60;;;;;;;;;;5021479;28;20206;-82
2022/01/05 05:23:01;;;;;;;1.00;1.00;;;;;;;;;;5021950;28;20737;-82
2022/01/05 05:25:28;;;;;;;2.83;1.02;;;;;;;;;;5022235;28;20258;-82
2022/01/05 05:27:55;;;;;;;1.08;0.80;;;;;;;;;;5018418;28;20677;-81
2022/01/05 05:30:24;;;;;;;3.03;0.90;;;;;;;;;;5023534;28;20204;-81
2022/01/05 05:32:54;;;;;;;0.70;0.70;;;3.70;99.90;;;;;;5023035;28;20283;-81
2022/01/05 05:35:21;;;;;;;0.60;0.60;;;;;;;;;;5017979;28;20209;-81
2022/01/05 05:37:49;;;;;;;0.40;0.40;;;2.70;99.90;;;;;;5024082;28;20230;-81
2022/01/05 05:40:16;;;;;;;1.77;0.68;;;2.50;99.90;;;;;;5025779;28;20212;-81
2022/01/05 05:42:43;;;;;;;0.40;0.40;;;2.30;99.90;;;;;;5023173;28;20686;-82
2022/01/05 05:45:10;;;;;;;0.75;0.75;;;;;;;;;;5026378;28;20639;-82
2022/01/05 05:47:39;;;;;;;0.70;0.70;;;;;;;;;;5022091;28;20213;-82
2022/01/05 05:50:07;;;;;;;0.93;0.60;;;2.40;99.90;;;;;;5027576;28;20565;-82
2022/01/05 05:52:34;;;;;;;2.38;0.95;;;;;;;;;;5027256;28;20224;-82
2022/01/05 05:55:02;;;;;;;2.33;1.17;;;;;;;;;;5025902;28;20200;-83
2022/01/05 05:57:29;;;;;;;1.95;1.77;;;;;;;;;;5025196;28;20247;-82
2022/01/05 05:59:56;;;;;;;0.80;0.77;;;0.90;99.90;;;;;;5026229;28;20201;-82
2022/01/05 06:02:23;;;;;;;1.05;0.95;;;;;;;;;;5025574;28;20655;-83
2022/01/05 06:04:52;;;;;;;1.02;0.90;;;;;;;;;;5026272;28;20602;-83
2022/01/05 06:07:19;;;;;;;0.73;0.73;;;;;;;;;;5026968;28;20215;-83
2022/01/05 06:09:47;;;;;;;0.98;0.98;;;;;;;;;;5027034;28;20204;-83
2022/01/05 06:12:14;;;;;;;1.40;1.30;;;;;;;;;;5019290;28;20229;-83
2022/01/05 06:14:41;;;;;;;1.40;1.30;;;;;;;;;;5026237;28;20200;-83
2022/01/05 06:17:09;;;;;;;1.60;1.33;;;;;;;;;;5023247;28;20216;-83
2022/01/05 06:19:36;;;;;;;3.70;2.10;;;;;;;;;;5021589;28;20194;-83
2022/01/05 06:22:05;;;;;;;1.60;1.50;;;;;;;;;;5026348;28;20223;-84
2022/01/05 06:24:33;;;;;;;1.38;1.27;;;;;;;;;;5024198;28;20288;-83
2022/01/05 06:27:01;;;;;;;1.60;1.50;;;;;;;;;;5021488;28;20626;-84
2022/01/05 06:29:28;;;;;;;3.55;1.80;;;;;;;;;;5024364;28;20666;-83
2022/01/05 06:31:55;;;;;;;1.77;1.67;;;;;;;;;;5026704;28;20204;-82
2022/01/05 06:34:23;;;;;;;1.13;1.00;;;;;;;;;;5023893;28;20280;-83
2022/01/05 06:36:50;;;;;;;4.18;2.28;;;;;;;;;;5027217;28;20215;-82
2022/01/05 06:39:19;;;;;;;3.50;1.27;;;;;;;;;;5026530;28;20209;-83
2022/01/05 06:41:46;;;;;;;1.80;1.02;;;;;;;;;;5025507;28;20203;-83
2022/01/05 06:44:13;;;;;;;1.27;1.20;;;;;;;;;;5023041;28;20212;-83
2022/01/05 06:46:40;;;;;;;1.70;1.40;;;;;;;;;;5025973;28;20208;-83
2022/01/05 06:49:10;;;;;;;2.80;1.50;;;;;;;;;;5028659;28;20200;-83
2022/01/05 06:51:38;;;;;;;1.55;0.90;;;;;;;;;;5023576;28;20243;-83
2022/01/05 06:54:05;;;;;;;1.40;1.00;;;1.70;99.90;;;;;;5026532;28;20315;-83
2022/01/05 06:56:33;;;;;;;0.80;0.80;;;;;;;;;;5025807;28;20201;-83
2022/01/05 06:59:01;;;;;;;1.85;1.25;;;;;;;;;;5027610;28;20209;-83
2022/01/05 07:01:28;;;;;;;2.10;1.10;;;;;;;;;;5026756;28;20203;-84
2022/01/05 07:03:55;;;;;;;1.75;1.65;;;;;;;;;;5023195;28;20212;-84
2022/01/05 07:06:23;;;;;;;3.47;2.40;;;;;;;;;;5026587;28;20246;-83
2022/01/05 07:08:50;;;;;;;2.47;2.28;;;;;;;;;;5026935;28;20201;-83
2022/01/05 07:11:17;;;;;;;1.45;1.33;;;;;;;;;;5023179;28;20209;-84
2022/01/05 07:13:46;;;;;;;1.52;1.42;;;;;;;;;;5026845;28;20592;-84
2022/01/05 07:16:13;;;;;;;2.65;1.90;;;;;;;;;;5025506;28;20279;-84
2022/01/05 07:18:41;;;;;;;1.92;1.80;;;;;;;;;;5025990;28;20211;-84
2022/01/05 07:21:09;;;;;;;1.65;1.15;;;;;;;;;;5019296;28;20228;-84
2022/01/05 07:23:36;;;;;;;1.65;1.55;;;;;;;;;;5021216;28;20213;-84
2022/01/05 07:26:03;;;;;;;2.45;2.25;;;;;;;;;;5028472;28;20667;-83
2022/01/05 07:28:30;;;;;;;2.00;1.90;;;;;;;;;;5021770;28;20208;-83
2022/01/05 07:30:59;;;;;;;1.90;1.80;;;2.00;99.90;;;;;;5024070;28;20205;-85
2022/01/05 07:33:26;;;;;;;1.10;1.10;;;;;;;;;;5027542;28;20224;-85
2022/01/05 07:35:54;;;;;;;6.10;1.40;;;;;;;;;;5023297;28;20722;-85
2022/01/05 07:38:21;;;;;;;1.60;1.50;;;;;;;;;;5027655;28;20200;-84
2022/01/05 07:40:48;;;;;;;1.40;1.30;;;;;;;;;;5022392;28;20205;-85
2022/01/05 07:43:16;;;;;;;3.03;1.60;;;;;;;;;;5019095;28;20209;-86
2022/01/05 07:45:43;;;;;;;2.47;1.70;;;;;;;;;;5026063;28;20209;-85
2022/01/05 07:48:12;;;;;;;4.90;2.03;;;;;;;;;;5022113;28;20204;-82
2022/01/05 07:50:39;;;;;;;2.40;2.20;;;;;;;;;;5024144;28;20201;-84
2022/01/05 07:53:06;;;;;;;2.20;2.00;;;;;;;;;;5022033;28;20233;-84
2022/01/05 07:55:35;;;;;;;2.28;2.13;;;1.40;99.90;;;;;;5021660;28;20211;-84
2022/01/05 07:58:02;;;;;;;1.55;1.45;;;1.50;99.90;;;;;;5025954;28;20638;-83
2022/01/05 08:00:29;;;;;;;3.22;2.17;;;1.30;99.90;;;;;;5021123;28;20683;-83
2022/01/05 08:02:56;;;;;;;3.50;2.45;;;1.40;99.90;;;;;;5023913;28;20258;-83
2022/01/05 08:05:27;;;;;;;5.72;2.30;;;1.40;99.90;;;;;;5021883;28;20205;-84
2022/01/05 08:07:54;;;;;;;3.75;2.60;;;;;;;;;;5020612;28;20694;-84
2022/01/05 08:10:22;;;;;;;2.92;2.67;;;;;;;;;;5022924;28;20239;-84
2022/01/05 08:12:49;;;;;;;2.80;2.50;;;1.40;99.90;;;;;;5021398;28;20599;-84
2022/01/05 08:15:16;;;;;;;2.00;1.90;;;;;;;;;;5020463;28;20201;-84
2022/01/05 08:17:43;;;;;;;5.95;2.83;;;;;;;;;;5018236;28;20732;-84
2022/01/05 08:20:12;;;;;;;7.13;2.63;;;1.30;99.90;;;;;;5021721;28;20197;-84
2022/01/05 08:22:41;;;;;;;5.82;3.30;;;;;;;;;;5022793;28;20217;-84
2022/01/05 08:25:10;;;;;;;2.35;1.83;;;1.30;99.90;;;;;;5023304;28;20216;-83
2022/01/05 08:27:37;;;;;;;3.67;3.05;;;;;;;;;;5020974;28;20262;-83
2022/01/05 08:30:06;;;;;;;1.88;1.77;;;;;;;;;;5021236;28;20205;-83
2022/01/05 08:32:33;;;;;;;2.65;2.17;;;1.20;99.90;;;;;;5020928;28;20204;-83
2022/01/05 08:35:01;;;;;;;1.65;1.55;;;;;;;;;;5022929;28;20206;-83
2022/01/05 08:37:28;;;;;;;3.05;2.10;;;;;;;;;;5020471;28;20205;-84
2022/01/05 08:39:59;;;;;;;2.60;2.20;;;;;;;;;;5019775;28;20223;-84
2022/01/05 08:42:26;;;;;;;3.03;1.92;;;;;;;;;;5023426;28;20293;-83
2022/01/05 08:44:54;;;;;;;3.53;1.88;;;;;;;;;;5022264;28;20559;-83
2022/01/05 08:47:21;;;;;;;2.95;1.80;;;;;;;;;;5021889;28;20231;-83
2022/01/05 08:49:48;;;;;;;2.20;1.52;;;;;;;;;;5021116;28;20213;-83
2022/01/05 08:52:16;;;;;;;5.55;3.35;;;;;;;;;;5023387;28;20571;-84
2022/01/05 08:54:43;;;;;;;4.20;3.80;;;;;;;;;;5021070;28;20600;-84
2022/01/05 08:57:14;;;;;;;2.20;2.00;;;0.90;99.90;;;;;;5027305;28;20950;-84
2022/01/05 08:59:43;;;;;;;2.47;2.28;;;1.10;99.90;;;;;;5020272;28;20212;-83
2022/01/05 09:02:13;;;;;;;3.25;2.42;;;;;;;;;;5027519;28;20566;-83
2022/01/05 09:04:40;;;;;;;2.85;2.45;;;;;;;;;;5024891;28;20628;-83
2022/01/05 09:07:08;;;;;;;8.50;3.08;;;;;;;;;;5021414;28;20684;-84
2022/01/05 09:09:35;;;;;;;4.65;2.50;;;;;;;;;;5021500;28;20208;-83
2022/01/05 09:12:02;;;;;;;4.03;2.60;;;;;;;;;;5020436;28;20923;-83
2022/01/05 09:14:31;;;;;;;7.05;2.17;;;;;;;;;;5026655;28;20232;-83
2022/01/05 09:16:59;;;;;;;3.58;2.10;;;0.90;99.90;;;;;;5025616;28;20300;-82
2022/01/05 09:19:28;;;;;;;2.17;2.00;;;;;;;;;;5029333;28;20205;-82
2022/01/05 09:21:55;;;;;;;3.42;2.30;;;;;;;;;;5029371;28;20654;-83
2022/01/05 09:24:23;;;;;;;2.55;2.35;;;;;;;;;;5028820;28;20323;-83
2022/01/05 09:26:50;;;;;;;5.28;2.17;;;;;;;;;;5026897;28;20208;-83
2022/01/05 09:29:18;;;;;;;1.42;1.33;;;;;;;;;;5026645;28;20196;-83
2022/01/05 09:31:47;;;;;;;8.27;2.72;;;;;;;;;;5023141;28;20619;-83
2022/01/05 09:34:14;;;;;;;2.97;2.50;;;;;;;;;;5024122;28;20232;-83
2022/01/05 09:36:46;;;;;;;3.60;2.72;;;;;;;;;;5023373;28;20204;-83
2022/01/05 09:42:00;;;;;;;2.70;2.50;;;;;;;;;;5020325;28;20752;-83
2022/01/05 09:44:29;;;;;;;6.43;2.80;;;1.40;99.90;;;;;;5025447;28;20247;-83
2022/01/05 09:47:21;;;;;;;2.95;1.85;;;1.30;99.90;;;;;;5019855;28;20569;-82
2022/01/05 09:49:53;;;;;;;6.32;2.25;;;1.30;99.90;;;;;;5024425;28;20738;-82
2022/01/05 09:52:22;;;;;;;3.05;2.75;;;1.30;99.90;;;;;;5027454;28;20212;-82
2022/01/05 09:54:50;;;;;;;6.30;2.08;;;;;;;;;;5026947;28;20231;-82
2022/01/05 09:57:19;;;;;;;6.72;2.55;;;1.40;99.90;;;;;;5028132;28;20210;-82
2022/01/05 09:59:47;;;;;;;12.30;2.55;;;;;;;;;;5025426;28;20204;-82
2022/01/05 10:02:18;;;;;;;2.10;2.00;;;;;;;;;;5024069;28;20201;-81
2022/01/05 10:04:45;;;;;;;6.43;2.60;;;;;;;;;;5028835;28;20212;-82
2022/01/05 10:07:13;;;;;;;3.05;1.80;;;;;;;;;;5023124;28;20216;-82
2022/01/05 10:09:41;;;;;;;4.28;2.05;;;1.60;99.20;;;;;;5019694;28;20582;-82
2022/01/05 10:12:10;;;;;;;5.20;2.80;;;1.50;99.30;;;;;;5022126;28;20208;-82
2022/01/05 10:14:40;;;;;;;8.13;2.08;;;;;;;;;;5023083;28;20237;-83
2022/01/05 10:17:13;;;;;;;4.20;2.38;;;1.50;98.60;;;;;;5027293;28;20262;-82
2022/01/05 10:19:43;;;;;;;4.13;2.10;;;1.50;98.40;;;;;;5025224;28;20196;-81
2022/01/05 10:22:29;;;;;;;3.45;1.38;;;1.40;97.70;;;;;;5026328;28;20200;-81
2022/01/05 10:24:56;;;;;;;3.60;1.90;;;;;;;;;;5025464;28;20228;-83
2022/01/05 10:27:25;;;;;;;5.07;1.60;;;1.40;97.50;;;;;;5021851;28;20215;-82
2022/01/05 10:29:55;;;;;;;6.25;2.10;;;1.40;97.00;;;;;;5023414;28;20236;-81
2022/01/05 10:32:22;;;;;;;2.50;2.30;;;;;;;;;;5021950;28;20208;-81
2022/01/05 10:35:06;;;;;;;4.63;2.75;;;1.40;98.40;;;;;;5030359;28;20244;-81
2022/01/05 10:37:34;;;;;;;3.25;1.83;;;1.50;96.30;;;;;;5024560;28;20682;-82
2022/01/05 10:40:10;;;;;;;4.22;1.98;;;1.70;96.50;;;;;;5026814;28;20568;-81
2022/01/05 10:42:39;;;;;;;7.25;2.72;;;1.70;96.90;;;;;;5023009;28;20216;-82
2022/01/05 10:45:10;;;;;;;4.35;2.78;;;1.80;97.30;;;;;;5028269;28;20259;-82
2022/01/05 10:47:37;;;;;;;2.90;2.20;;;;;;;;;;5020816;28;20220;-82
2022/01/05 10:50:11;;;;;;;6.18;1.88;;;1.50;95.80;;;;;;5025365;28;20212;-81
2022/01/05 10:52:38;;;;;;;3.33;2.28;;;;;;;;;;5026676;28;20196;-82
2022/01/05 10:55:14;;;;;;;4.20;2.13;;;1.40;96.50;;;;;;5027633;28;20233;-82
2022/01/05 10:57:56;;;;;;;2.00;1.70;;;1.30;96.30;;;;;;5017240;28;20208;-82
2022/01/05 11:00:31;;;;;;;4.20;2.00;;;;;;;;;;5022478;28;20212;-82
2022/01/05 11:02:58;;;;;;;1.77;1.67;;;;;;;;;;5024581;28;20205;-81
2022/01/05 11:05:27;;;;;;;3.53;2.33;;;;;;;;;;5030997;28;20204;-82
2022/01/05 11:08:07;;;;;;;1.73;1.63;;;1.70;97.00;;;;;;5020848;28;20228;-82
2022/01/05 11:10:34;;;;;;;6.45;1.90;;;;;;;;;;5026051;28;20227;-82
2022/01/05 11:13:02;;;;;;;2.20;1.38;;;;;;;;;;5021278;28;20209;-82
2022/01/05 11:15:31;;;;;;;4.65;1.83;;;;;;;;;;5032312;28;20229;-81
2022/01/05 11:18:15;;;;;;;5.00;2.20;;;1.90;96.10;;;;;;5021999;28;20213;-82
2022/01/05 11:20:47;;;;;;;5.50;2.20;;;2.10;95.70;;;;;;5021741;28;20215;-81
2022/01/05 11:23:15;;;;;;;9.10;1.95;;;2.40;96.50;;;;;;5022292;28;20200;-81
2022/01/05 11:25:44;;;;;;;4.07;1.65;;;2.40;96.70;;;;;;5020641;28;20200;-81
2022/01/05 11:28:13;;;;;;;3.22;2.15;;;;;;;;;;5021138;28;20232;-83
2022/01/05 11:30:41;;;;;;;4.55;2.38;;;;;;;;;;5025118;28;20204;-82
2022/01/05 11:33:08;;;;;;;3.40;2.35;;;;;;;;;;5019927;28;20224;-82
2022/01/05 11:35:36;;;;;;;3.92;2.50;;;;;;;;;;5022646;28;20239;-81
2022/01/05 11:38:06;;;;;;;4.40;2.05;;;2.50;94.90;;;;;;5018583;28;20316;-81
2022/01/05 11:40:35;;;;;;;4.05;2.05;;;2.50;94.60;;;;;;5018742;28;20283;-81
2022/01/05 11:43:05;;;;;;;1.98;1.80;;;2.60;94.40;;;;;;5021477;28;21048;-80
2022/01/05 11:45:35;;;;;;;2.00;1.90;;;2.70;94.80;;;;;;5023952;28;20204;-81
2022/01/05 11:48:21;;;;;;;6.95;2.05;;;2.60;93.90;;;;;;5025412;28;20205;-81
2022/01/05 11:50:50;;;;;;;3.05;1.95;;;2.50;96.30;;;;;;5020564;28;20228;-80
2022/01/05 11:53:33;;;;;;;1.83;1.38;;;;;;;;;;5022084;28;20204;-81
2022/01/05 11:56:15;;;;;;;3.35;1.75;;;2.30;96.20;;;;;;5021205;28;20208;-81
2022/01/05 11:58:57;;;;;;;1.92;1.83;;;2.30;97.10;;;;;;5020817;28;20213;-81
2022/01/05 12:01:30;;;;;;;2.20;1.63;;;2.30;96.10;;;;;;5020422;28;20200;-82
2022/01/05 12:04:06;;;;;;;3.60;1.90;;;2.20;95.00;;;;;;5021915;28;20271;-82
2022/01/05 12:06:35;;;;;;;9.43;2.60;;;2.20;94.50;;;;;;5018207;28;20204;-82
2022/01/05 12:09:05;;;;;;;3.67;2.40;;;2.30;95.30;;;;;;5025446;28;20200;-82
2022/01/05 12:11:34;;;;;;;2.80;2.25;;;2.20;95.00;;;;;;5018830;28;20548;-82
2022/01/05 12:14:02;;;;;;;7.97;1.95;;;2.20;95.30;;;;;;5023791;28;20639;-82
2022/01/05 12:16:30;;;;;;;4.95;1.85;;;2.20;94.00;;;;;;5021010;28;20301;-82
2022/01/05 12:19:05;;;;;;;4.28;2.13;;;;;;;;;;5019089;28;20205;-82
2022/01/05 12:21:42;;;;;;;11.27;2.30;;;;;;;;;;5018182;28;20201;-81
2022/01/05 12:24:12;;;;;;;4.45;1.92;;;;;;;;;;5021058;28;20208;-81
2022/01/05 12:26:39;;;;;;;1.92;1.42;;;;;;;;;;5023862;28;20208;-82
2022/01/05 12:29:07;;;;;;;3.00;1.52;;;2.10;93.70;;;;;;5019652;28;20274;-82
2022/01/05 12:31:58;;;;;;;3.63;1.92;;;2.20;93.70;;;;;;5023705;28;20207;-82
2022/01/05 12:34:52;;;;;;;8.65;1.85;;;2.20;93.40;;;;;;5018758;28;20225;-81
2022/01/05 12:37:38;;;;;;;4.90;1.55;;;2.20;92.90;;;;;;5020470;28;20668;-82
2022/01/05 12:40:26;;;;;;;3.67;1.70;;;2.20;92.40;;;;;;5017056;28;20209;-81
2022/01/05 12:43:26;;;;;;;2.28;1.52;;;2.10;92.20;;;;;;5013463;28;20213;-81
2022/01/05 12:45:55;;;;;;;2.58;1.58;;;2.00;92.50;;;;;;5022885;28;20224;-81
2022/01/05 12:49:01;;;;;;;1.50;1.40;;;2.20;92.70;;;;;;5017061;28;20235;-82
2022/01/05 12:51:53;;;;;;;2.58;1.30;;;2.20;92.10;;;;;;5016348;28;20198;-81
2022/01/05 12:54:22;;;;;;;4.45;1.83;;;;;;;;;;5024168;28;20220;-82
2022/01/05 12:56:53;;;;;;;1.50;1.40;;;2.20;92.20;;;;;;5021100;28;20217;-81
2022/01/05 12:59:24;;;;;;;3.70;1.30;;;2.10;92.00;;;;;;5023665;28;20204;-81
2022/01/05 13:01:55;;;;;;;3.22;2.25;;;2.00;92.60;;;;;;5025378;28;20212;-82
2022/01/05 13:04:24;;;;;;;6.70;2.30;;;;;;;;;;5027922;28;20205;-82
2022/01/05 13:06:53;;;;;;;2.60;1.80;;;2.10;92.10;;;;;;5014181;28;20305;-82
2022/01/05 13:09:27;;;;;;;5.60;3.42;;;2.10;92.60;;;;;;5022624;28;20563;-82
2022/01/05 13:11:59;;;;;;;2.83;1.77;;;2.10;93.20;;;;;;5022638;28;20216;-82
2022/01/05 13:14:30;;;;;;;5.47;2.10;;;2.00;92.50;;;;;;5019134;28;20228;-82
2022/01/05 13:17:00;;;;;;;2.60;1.83;;;2.20;93.10;;;;;;5021526;28;20215;-82
2022/01/05 13:19:30;;;;;;;3.30;1.35;;;2.20;92.40;;;;;;5021711;28;20205;-82
2022/01/05 13:21:59;;;;;;;2.97;1.70;;;1.80;92.30;;;;;;5028227;28;20288;-82
2022/01/05 13:24:45;;;;;;;3.65;2.25;;;2.20;92.20;;;;;;5027030;28;20211;-82
2022/01/05 13:27:19;;;;;;;2.17;1.70;;;2.30;92.60;;;;;;5021642;28;20228;-82
2022/01/05 13:29:47;;;;;;;4.20;2.03;;;2.20;92.90;;;;;;5023227;28;20215;-82
2022/01/05 13:32:16;;;;;;;6.57;1.90;;;2.20;92.90;;;;;;5019373;28;20228;-82
2022/01/05 13:34:48;;;;;;;3.60;2.40;;;2.20;92.80;;;;;;5023961;28;20601;-82
2022/01/05 13:37:27;;;;;;;2.38;1.80;;;2.20;93.10;;;;;;5027350;28;20211;-82
2022/01/05 13:39:54;;;;;;;4.13;1.77;;;;;;;;;;5022844;28;20205;-81
2022/01/05 13:42:32;;;;;;;1.98;1.45;;;2.40;92.60;;;;;;5015779;28;20298;-81
2022/01/05 13:45:00;;;;;;;2.42;1.60;;;;;;;;;;5018440;28;20259;-82
2022/01/05 13:47:27;;;;;;;4.32;1.50;;;;;;;;;;5019310;28;20227;-82
2022/01/05 13:50:19;;;;;;;1.50;1.30;;;2.40;91.40;;;;;;5019414;28;20244;-81
2022/01/05 13:52:47;;;;;;;3.25;1.20;;;2.30;91.00;;;;;;5015328;28;20223;-81
2022/01/05 13:55:26;;;;;;;4.70;1.60;;;2.30;92.00;;;;;;5018611;28;20586;-81
2022/01/05 13:58:09;;;;;;;2.25;1.45;;;2.30;91.60;;;;;;5021121;28;20596;-81
2022/01/05 14:00:37;;;;;;;4.28;2.90;;;2.00;91.50;;;;;;5027319;28;20228;-81
2022/01/05 14:03:04;;;;;;;5.70;2.45;;;;;;;;;;5022871;28;20208;-81
2022/01/05 14:05:32;;;;;;;3.20;2.40;;;;;;;;;;5024748;28;20201;-81
2022/01/05 14:08:02;;;;;;;4.75;2.17;;;;;;;;;;5023405;28;20646;-81
2022/01/05 14:10:30;;;;;;;2.70;1.50;;;;;;;;;;5023472;28;20780;-82
2022/01/05 14:13:02;;;;;;;3.17;1.25;;;2.30;91.60;;;;;;5023042;28;20212;-81
2022/01/05 14:15:31;;;;;;;3.20;1.45;;;;;;;;;;5024920;28;20233;-82
2022/01/05 14:17:59;;;;;;;5.38;2.50;;;;;;;;;;5023507;28;20215;-81
2022/01/05 14:20:27;;;;;;;11.02;1.35;;;;;;;;;;5024513;28;20209;-82
2022/01/05 14:23:03;;;;;;;2.85;1.65;;;2.20;91.80;;;;;;5023237;28;20208;-82